sensor_id;sensor_type;location;lat;lon;timestamp;P1;durP1;ratioP1;P2;durP2;ratioP2
46086;SDS011;31824;49.648;8.640;2023-06-14T00:01:13;4.13;;;2.05;;
46086;SDS011;31824;49.648;8.640;2023-06-14T00:04:17;4.72;;;1.88;;
46086;SDS011;31824;49.648;8.640;2023-06-14T00:07:21;4.85;;;1.80;;
46086;SDS011;31824;49.648;8.640;2023-06-14T00:10:35;5.20;;;1.63;;
46086;SDS011;31824;49.648;8.640;2023-06-14T00:13:38;6.88;;;1.98;;
46086;SDS011;31824;49.648;8.640;2023-06-14T00:16:40;5.18;;;1.88;;
46086;SDS011;31824;49.648;8.640;2023-06-14T00:19:45;3.72;;;1.83;;
46086;SDS011;31824;49.648;8.640;2023-06-14T00:22:47;4.40;;;1.88;;
46086;SDS011;31824;49.648;8.640;2023-06-14T00:25:49;3.55;;;1.73;;
46086;SDS011;31824;49.648;8.640;2023-06-14T00:28:51;7.28;;;1.88;;
46086;SDS011;31824;49.648;8.640;2023-06-14T00:31:53;4.55;;;2.25;;
46086;SDS011;31824;49.648;8.640;2023-06-14T00:34:56;3.83;;;1.90;;
46086;SDS011;31824;49.648;8.640;2023-06-14T00:37:58;5.30;;;1.70;;
46086;SDS011;31824;49.648;8.640;2023-06-14T00:41:01;7.65;;;2.05;;
46086;SDS011;31824;49.648;8.640;2023-06-14T00:44:03;13.48;;;2.13;;
46086;SDS011;31824;49.648;8.640;2023-06-14T00:47:05;4.93;;;1.77;;
46086;SDS011;31824;49.648;8.640;2023-06-14T00:50:09;4.45;;;2.00;;
46086;SDS011;31824;49.648;8.640;2023-06-14T00:53:11;4.03;;;1.85;;
46086;SDS011;31824;49.648;8.640;2023-06-14T00:56:14;4.28;;;1.88;;
46086;SDS011;31824;49.648;8.640;2023-06-14T00:59:16;3.78;;;1.85;;
46086;SDS011;31824;49.648;8.640;2023-06-14T01:02:18;3.00;;;1.48;;
46086;SDS011;31824;49.648;8.640;2023-06-14T01:05:21;3.65;;;1.70;;
46086;SDS011;31824;49.648;8.640;2023-06-14T01:08:24;3.78;;;1.92;;
46086;SDS011;31824;49.648;8.640;2023-06-14T01:11:31;3.78;;;1.83;;
46086;SDS011;31824;49.648;8.640;2023-06-14T01:14:39;3.65;;;1.52;;
46086;SDS011;31824;49.648;8.640;2023-06-14T01:17:45;3.65;;;2.00;;
46086;SDS011;31824;49.648;8.640;2023-06-14T01:20:54;4.53;;;1.90;;
46086;SDS011;31824;49.648;8.640;2023-06-14T01:24:00;3.13;;;1.67;;
46086;SDS011;31824;49.648;8.640;2023-06-14T01:27:05;3.30;;;1.90;;
46086;SDS011;31824;49.648;8.640;2023-06-14T01:30:09;3.78;;;2.20;;
46086;SDS011;31824;49.648;8.640;2023-06-14T01:33:14;3.13;;;1.80;;
46086;SDS011;31824;49.648;8.640;2023-06-14T01:36:19;3.00;;;1.75;;
46086;SDS011;31824;49.648;8.640;2023-06-14T01:39:33;5.95;;;2.00;;
46086;SDS011;31824;49.648;8.640;2023-06-14T01:42:36;4.15;;;2.15;;
46086;SDS011;31824;49.648;8.640;2023-06-14T01:45:40;4.05;;;1.95;;
46086;SDS011;31824;49.648;8.640;2023-06-14T01:48:43;4.57;;;1.90;;
46086;SDS011;31824;49.648;8.640;2023-06-14T01:51:45;11.00;;;2.00;;
46086;SDS011;31824;49.648;8.640;2023-06-14T01:54:48;4.47;;;1.83;;
46086;SDS011;31824;49.648;8.640;2023-06-14T02:00:53;3.63;;;1.90;;
46086;SDS011;31824;49.648;8.640;2023-06-14T02:03:57;4.85;;;2.45;;
46086;SDS011;31824;49.648;8.640;2023-06-14T02:07:01;4.63;;;1.95;;
46086;SDS011;31824;49.648;8.640;2023-06-14T02:10:05;3.83;;;1.90;;
46086;SDS011;31824;49.648;8.640;2023-06-14T02:13:07;5.18;;;1.83;;
46086;SDS011;31824;49.648;8.640;2023-06-14T02:16:10;5.25;;;1.83;;
46086;SDS011;31824;49.648;8.640;2023-06-14T02:19:12;3.85;;;1.58;;
46086;SDS011;31824;49.648;8.640;2023-06-14T02:22:14;5.85;;;1.95;;
46086;SDS011;31824;49.648;8.640;2023-06-14T02:25:17;3.42;;;1.73;;
46086;SDS011;31824;49.648;8.640;2023-06-14T02:28:20;4.88;;;2.00;;
46086;SDS011;31824;49.648;8.640;2023-06-14T02:31:22;4.28;;;2.00;;
46086;SDS011;31824;49.648;8.640;2023-06-14T02:34:24;3.25;;;1.77;;
46086;SDS011;31824;49.648;8.640;2023-06-14T02:37:26;4.18;;;2.00;;
46086;SDS011;31824;49.648;8.640;2023-06-14T02:40:29;7.47;;;2.13;;
46086;SDS011;31824;49.648;8.640;2023-06-14T02:43:31;5.63;;;1.95;;
46086;SDS011;31824;49.648;8.640;2023-06-14T02:46:33;5.03;;;1.90;;
46086;SDS011;31824;49.648;8.640;2023-06-14T02:49:35;3.05;;;1.60;;
46086;SDS011;31824;49.648;8.640;2023-06-14T02:52:37;3.75;;;1.60;;
46086;SDS011;31824;49.648;8.640;2023-06-14T02:55:40;3.70;;;2.00;;
46086;SDS011;31824;49.648;8.640;2023-06-14T02:58:43;4.68;;;1.80;;
46086;SDS011;31824;49.648;8.640;2023-06-14T03:01:44;5.25;;;1.88;;
46086;SDS011;31824;49.648;8.640;2023-06-14T03:04:48;5.00;;;2.30;;
46086;SDS011;31824;49.648;8.640;2023-06-14T03:07:52;3.65;;;1.90;;
46086;SDS011;31824;49.648;8.640;2023-06-14T03:10:56;4.75;;;1.92;;
46086;SDS011;31824;49.648;8.640;2023-06-14T03:13:59;6.30;;;2.15;;
46086;SDS011;31824;49.648;8.640;2023-06-14T03:17:02;4.03;;;1.80;;
46086;SDS011;31824;49.648;8.640;2023-06-14T03:20:05;4.03;;;1.70;;
46086;SDS011;31824;49.648;8.640;2023-06-14T03:23:08;2.85;;;1.70;;
46086;SDS011;31824;49.648;8.640;2023-06-14T03:26:13;4.00;;;1.75;;
46086;SDS011;31824;49.648;8.640;2023-06-14T03:29:22;5.18;;;1.85;;
46086;SDS011;31824;49.648;8.640;2023-06-14T03:32:24;3.47;;;1.83;;
46086;SDS011;31824;49.648;8.640;2023-06-14T03:35:26;8.73;;;2.10;;
46086;SDS011;31824;49.648;8.640;2023-06-14T03:38:30;3.30;;;1.83;;
46086;SDS011;31824;49.648;8.640;2023-06-14T03:41:33;4.90;;;2.08;;
46086;SDS011;31824;49.648;8.640;2023-06-14T03:44:35;3.17;;;1.80;;
46086;SDS011;31824;49.648;8.640;2023-06-14T03:47:40;3.72;;;1.77;;
46086;SDS011;31824;49.648;8.640;2023-06-14T03:50:43;3.58;;;1.92;;
46086;SDS011;31824;49.648;8.640;2023-06-14T03:53:46;3.95;;;1.98;;
46086;SDS011;31824;49.648;8.640;2023-06-14T03:56:56;3.08;;;1.58;;
46086;SDS011;31824;49.648;8.640;2023-06-14T03:59:58;3.60;;;1.80;;
46086;SDS011;31824;49.648;8.640;2023-06-14T04:03:01;7.80;;;2.55;;
46086;SDS011;31824;49.648;8.640;2023-06-14T04:06:05;5.97;;;2.05;;
46086;SDS011;31824;49.648;8.640;2023-06-14T04:09:07;11.85;;;2.90;;
46086;SDS011;31824;49.648;8.640;2023-06-14T04:12:11;5.20;;;1.90;;
46086;SDS011;31824;49.648;8.640;2023-06-14T04:15:17;3.78;;;1.92;;
46086;SDS011;31824;49.648;8.640;2023-06-14T04:18:28;4.07;;;2.35;;
46086;SDS011;31824;49.648;8.640;2023-06-14T04:21:30;5.35;;;2.13;;
46086;SDS011;31824;49.648;8.640;2023-06-14T04:24:34;3.03;;;1.75;;
46086;SDS011;31824;49.648;8.640;2023-06-14T04:27:39;5.55;;;2.10;;
46086;SDS011;31824;49.648;8.640;2023-06-14T04:30:42;5.82;;;1.85;;
46086;SDS011;31824;49.648;8.640;2023-06-14T04:33:44;5.13;;;2.17;;
46086;SDS011;31824;49.648;8.640;2023-06-14T04:36:52;8.10;;;2.45;;
46086;SDS011;31824;49.648;8.640;2023-06-14T04:40:04;3.25;;;1.80;;
46086;SDS011;31824;49.648;8.640;2023-06-14T04:46:16;4.68;;;2.05;;
46086;SDS011;31824;49.648;8.640;2023-06-14T04:49:19;6.40;;;2.00;;
46086;SDS011;31824;49.648;8.640;2023-06-14T04:52:21;4.72;;;2.03;;
46086;SDS011;31824;49.648;8.640;2023-06-14T04:55:22;5.15;;;2.33;;
46086;SDS011;31824;49.648;8.640;2023-06-14T04:58:27;5.88;;;2.03;;
46086;SDS011;31824;49.648;8.640;2023-06-14T05:01:30;5.80;;;2.30;;
46086;SDS011;31824;49.648;8.640;2023-06-14T05:04:33;4.20;;;1.90;;
46086;SDS011;31824;49.648;8.640;2023-06-14T05:07:35;5.03;;;2.08;;
46086;SDS011;31824;49.648;8.640;2023-06-14T05:10:40;4.95;;;2.22;;
46086;SDS011;31824;49.648;8.640;2023-06-14T05:13:44;4.05;;;2.13;;
46086;SDS011;31824;49.648;8.640;2023-06-14T05:16:47;5.40;;;2.28;;
46086;SDS011;31824;49.648;8.640;2023-06-14T05:19:50;4.57;;;1.80;;
46086;SDS011;31824;49.648;8.640;2023-06-14T05:22:52;4.93;;;2.08;;
46086;SDS011;31824;49.648;8.640;2023-06-14T05:25:54;4.32;;;1.92;;
46086;SDS011;31824;49.648;8.640;2023-06-14T05:32:03;3.88;;;2.13;;
46086;SDS011;31824;49.648;8.640;2023-06-14T05:35:06;3.00;;;1.70;;
46086;SDS011;31824;49.648;8.640;2023-06-14T05:38:08;4.97;;;2.38;;
46086;SDS011;31824;49.648;8.640;2023-06-14T05:41:10;3.13;;;1.70;;
46086;SDS011;31824;49.648;8.640;2023-06-14T05:44:13;4.38;;;2.03;;
46086;SDS011;31824;49.648;8.640;2023-06-14T05:47:15;5.00;;;1.98;;
46086;SDS011;31824;49.648;8.640;2023-06-14T05:50:17;3.92;;;1.80;;
46086;SDS011;31824;49.648;8.640;2023-06-14T05:53:19;7.82;;;1.80;;
46086;SDS011;31824;49.648;8.640;2023-06-14T05:56:21;5.93;;;2.20;;
46086;SDS011;31824;49.648;8.640;2023-06-14T05:59:25;3.58;;;1.92;;
46086;SDS011;31824;49.648;8.640;2023-06-14T06:02:27;4.72;;;2.15;;
46086;SDS011;31824;49.648;8.640;2023-06-14T06:05:32;6.53;;;2.00;;
46086;SDS011;31824;49.648;8.640;2023-06-14T06:08:34;8.48;;;2.20;;
46086;SDS011;31824;49.648;8.640;2023-06-14T06:11:36;4.75;;;2.00;;
46086;SDS011;31824;49.648;8.640;2023-06-14T06:14:58;4.07;;;1.80;;
46086;SDS011;31824;49.648;8.640;2023-06-14T06:18:00;3.88;;;1.98;;
46086;SDS011;31824;49.648;8.640;2023-06-14T06:21:03;6.20;;;2.00;;
46086;SDS011;31824;49.648;8.640;2023-06-14T06:24:05;3.35;;;1.83;;
46086;SDS011;31824;49.648;8.640;2023-06-14T06:27:07;3.63;;;1.90;;
46086;SDS011;31824;49.648;8.640;2023-06-14T06:30:11;3.92;;;1.75;;
46086;SDS011;31824;49.648;8.640;2023-06-14T06:33:17;3.38;;;1.73;;
46086;SDS011;31824;49.648;8.640;2023-06-14T06:36:22;4.07;;;1.88;;
46086;SDS011;31824;49.648;8.640;2023-06-14T06:39:25;6.43;;;1.90;;
46086;SDS011;31824;49.648;8.640;2023-06-14T06:42:27;3.95;;;1.85;;
46086;SDS011;31824;49.648;8.640;2023-06-14T06:45:34;6.93;;;2.03;;
46086;SDS011;31824;49.648;8.640;2023-06-14T06:48:36;3.65;;;2.00;;
46086;SDS011;31824;49.648;8.640;2023-06-14T06:54:44;3.15;;;1.85;;
46086;SDS011;31824;49.648;8.640;2023-06-14T06:57:47;5.65;;;1.92;;
46086;SDS011;31824;49.648;8.640;2023-06-14T07:00:50;3.08;;;1.80;;
46086;SDS011;31824;49.648;8.640;2023-06-14T07:03:52;6.38;;;2.03;;
46086;SDS011;31824;49.648;8.640;2023-06-14T07:06:54;3.15;;;1.70;;
46086;SDS011;31824;49.648;8.640;2023-06-14T07:09:56;3.45;;;1.80;;
46086;SDS011;31824;49.648;8.640;2023-06-14T07:12:58;4.32;;;2.10;;
46086;SDS011;31824;49.648;8.640;2023-06-14T07:16:03;4.57;;;1.83;;
46086;SDS011;31824;49.648;8.640;2023-06-14T07:19:11;4.75;;;1.85;;
46086;SDS011;31824;49.648;8.640;2023-06-14T07:22:13;4.38;;;2.03;;
46086;SDS011;31824;49.648;8.640;2023-06-14T07:25:15;3.70;;;1.90;;
46086;SDS011;31824;49.648;8.640;2023-06-14T07:28:22;6.07;;;2.08;;
46086;SDS011;31824;49.648;8.640;2023-06-14T07:31:25;7.20;;;1.83;;
46086;SDS011;31824;49.648;8.640;2023-06-14T07:34:28;3.58;;;1.92;;
46086;SDS011;31824;49.648;8.640;2023-06-14T07:37:29;7.78;;;1.80;;
46086;SDS011;31824;49.648;8.640;2023-06-14T07:40:32;4.70;;;1.90;;
46086;SDS011;31824;49.648;8.640;2023-06-14T07:43:34;4.22;;;1.83;;
46086;SDS011;31824;49.648;8.640;2023-06-14T07:46:37;3.38;;;1.70;;
46086;SDS011;31824;49.648;8.640;2023-06-14T07:49:42;5.00;;;1.77;;
46086;SDS011;31824;49.648;8.640;2023-06-14T07:52:44;4.13;;;1.85;;
46086;SDS011;31824;49.648;8.640;2023-06-14T07:55:46;4.35;;;1.95;;
46086;SDS011;31824;49.648;8.640;2023-06-14T07:58:54;3.72;;;1.90;;
46086;SDS011;31824;49.648;8.640;2023-06-14T08:01:57;3.75;;;1.77;;
46086;SDS011;31824;49.648;8.640;2023-06-14T08:04:59;4.63;;;1.70;;
46086;SDS011;31824;49.648;8.640;2023-06-14T08:08:01;3.05;;;1.60;;
46086;SDS011;31824;49.648;8.640;2023-06-14T08:11:03;3.60;;;1.95;;
46086;SDS011;31824;49.648;8.640;2023-06-14T08:14:05;3.15;;;1.60;;
46086;SDS011;31824;49.648;8.640;2023-06-14T08:17:08;3.30;;;1.80;;
46086;SDS011;31824;49.648;8.640;2023-06-14T08:20:10;3.35;;;1.70;;
46086;SDS011;31824;49.648;8.640;2023-06-14T08:23:13;4.15;;;1.58;;
46086;SDS011;31824;49.648;8.640;2023-06-14T08:26:14;4.05;;;1.80;;
46086;SDS011;31824;49.648;8.640;2023-06-14T08:29:16;3.25;;;1.20;;
46086;SDS011;31824;49.648;8.640;2023-06-14T08:32:19;2.95;;;1.55;;
46086;SDS011;31824;49.648;8.640;2023-06-14T08:35:21;6.95;;;1.67;;
46086;SDS011;31824;49.648;8.640;2023-06-14T08:38:24;4.00;;;1.83;;
46086;SDS011;31824;49.648;8.640;2023-06-14T08:41:26;3.88;;;1.77;;
46086;SDS011;31824;49.648;8.640;2023-06-14T08:44:30;4.40;;;1.70;;
46086;SDS011;31824;49.648;8.640;2023-06-14T08:47:34;4.05;;;1.40;;
46086;SDS011;31824;49.648;8.640;2023-06-14T08:50:42;2.55;;;1.42;;
46086;SDS011;31824;49.648;8.640;2023-06-14T08:56:52;3.88;;;1.80;;
46086;SDS011;31824;49.648;8.640;2023-06-14T08:59:58;2.42;;;1.30;;
46086;SDS011;31824;49.648;8.640;2023-06-14T09:03:08;2.83;;;1.50;;
46086;SDS011;31824;49.648;8.640;2023-06-14T09:06:15;2.53;;;1.38;;
46086;SDS011;31824;49.648;8.640;2023-06-14T09:09:17;4.65;;;1.55;;
46086;SDS011;31824;49.648;8.640;2023-06-14T09:12:22;2.85;;;1.30;;
46086;SDS011;31824;49.648;8.640;2023-06-14T09:15:25;3.47;;;1.60;;
46086;SDS011;31824;49.648;8.640;2023-06-14T09:18:34;6.13;;;2.00;;
46086;SDS011;31824;49.648;8.640;2023-06-14T09:21:49;3.30;;;1.50;;
46086;SDS011;31824;49.648;8.640;2023-06-14T09:24:51;3.28;;;1.30;;
46086;SDS011;31824;49.648;8.640;2023-06-14T09:27:55;2.05;;;1.10;;
46086;SDS011;31824;49.648;8.640;2023-06-14T09:30:57;3.78;;;1.30;;
46086;SDS011;31824;49.648;8.640;2023-06-14T09:34:01;2.83;;;1.20;;
46086;SDS011;31824;49.648;8.640;2023-06-14T09:37:04;2.40;;;1.17;;
46086;SDS011;31824;49.648;8.640;2023-06-14T09:40:06;3.17;;;1.60;;
46086;SDS011;31824;49.648;8.640;2023-06-14T09:43:09;3.08;;;1.13;;
46086;SDS011;31824;49.648;8.640;2023-06-14T09:46:12;3.47;;;1.30;;
46086;SDS011;31824;49.648;8.640;2023-06-14T09:49:16;2.35;;;1.27;;
46086;SDS011;31824;49.648;8.640;2023-06-14T09:52:19;2.00;;;1.13;;
46086;SDS011;31824;49.648;8.640;2023-06-14T09:55:41;3.17;;;1.50;;
46086;SDS011;31824;49.648;8.640;2023-06-14T09:58:43;3.85;;;1.40;;
46086;SDS011;31824;49.648;8.640;2023-06-14T10:01:59;2.50;;;1.38;;
46086;SDS011;31824;49.648;8.640;2023-06-14T10:05:11;3.22;;;1.63;;
46086;SDS011;31824;49.648;8.640;2023-06-14T10:08:17;2.88;;;1.42;;
46086;SDS011;31824;49.648;8.640;2023-06-14T10:11:21;3.80;;;1.33;;
46086;SDS011;31824;49.648;8.640;2023-06-14T10:14:23;3.83;;;1.40;;
46086;SDS011;31824;49.648;8.640;2023-06-14T10:17:32;2.22;;;1.10;;
46086;SDS011;31824;49.648;8.640;2023-06-14T10:20:44;3.08;;;1.20;;
46086;SDS011;31824;49.648;8.640;2023-06-14T10:23:52;2.78;;;1.15;;
46086;SDS011;31824;49.648;8.640;2023-06-14T10:26:56;2.42;;;1.13;;
46086;SDS011;31824;49.648;8.640;2023-06-14T10:30:02;3.28;;;1.50;;
46086;SDS011;31824;49.648;8.640;2023-06-14T10:33:05;2.83;;;1.33;;
46086;SDS011;31824;49.648;8.640;2023-06-14T10:36:25;2.67;;;1.50;;
46086;SDS011;31824;49.648;8.640;2023-06-14T10:39:38;2.85;;;1.60;;
46086;SDS011;31824;49.648;8.640;2023-06-14T10:42:41;3.65;;;1.30;;
46086;SDS011;31824;49.648;8.640;2023-06-14T10:49:36;3.38;;;1.30;;
46086;SDS011;31824;49.648;8.640;2023-06-14T10:52:45;4.97;;;1.70;;
46086;SDS011;31824;49.648;8.640;2023-06-14T10:55:47;2.88;;;1.40;;
46086;SDS011;31824;49.648;8.640;2023-06-14T10:58:49;5.00;;;1.35;;
46086;SDS011;31824;49.648;8.640;2023-06-14T11:01:55;3.78;;;1.52;;
46086;SDS011;31824;49.648;8.640;2023-06-14T11:05:02;2.95;;;1.60;;
46086;SDS011;31824;49.648;8.640;2023-06-14T11:08:26;4.20;;;1.50;;
46086;SDS011;31824;49.648;8.640;2023-06-14T11:11:36;3.00;;;1.58;;
46086;SDS011;31824;49.648;8.640;2023-06-14T11:14:40;5.82;;;1.50;;
46086;SDS011;31824;49.648;8.640;2023-06-14T11:17:49;6.07;;;1.50;;
46086;SDS011;31824;49.648;8.640;2023-06-14T11:20:54;4.07;;;1.60;;
46086;SDS011;31824;49.648;8.640;2023-06-14T11:23:58;2.47;;;1.30;;
46086;SDS011;31824;49.648;8.640;2023-06-14T11:27:02;3.55;;;1.52;;
46086;SDS011;31824;49.648;8.640;2023-06-14T11:30:06;2.70;;;1.42;;
46086;SDS011;31824;49.648;8.640;2023-06-14T11:33:09;3.95;;;1.33;;
46086;SDS011;31824;49.648;8.640;2023-06-14T11:36:16;3.40;;;1.30;;
46086;SDS011;31824;49.648;8.640;2023-06-14T11:39:25;2.17;;;1.27;;
46086;SDS011;31824;49.648;8.640;2023-06-14T11:42:28;3.92;;;1.20;;
46086;SDS011;31824;49.648;8.640;2023-06-14T11:45:32;3.00;;;1.50;;
46086;SDS011;31824;49.648;8.640;2023-06-14T11:48:37;2.88;;;1.33;;
46086;SDS011;31824;49.648;8.640;2023-06-14T11:51:40;2.97;;;1.50;;
46086;SDS011;31824;49.648;8.640;2023-06-14T11:57:49;3.95;;;1.23;;
46086;SDS011;31824;49.648;8.640;2023-06-14T12:00:51;3.22;;;1.10;;
46086;SDS011;31824;49.648;8.640;2023-06-14T12:03:54;2.65;;;1.40;;
46086;SDS011;31824;49.648;8.640;2023-06-14T12:06:56;2.78;;;1.35;;
46086;SDS011;31824;49.648;8.640;2023-06-14T12:10:07;2.80;;;1.40;;
46086;SDS011;31824;49.648;8.640;2023-06-14T12:13:11;2.97;;;1.33;;
46086;SDS011;31824;49.648;8.640;2023-06-14T12:16:16;3.92;;;1.40;;
46086;SDS011;31824;49.648;8.640;2023-06-14T12:19:18;2.65;;;1.38;;
46086;SDS011;31824;49.648;8.640;2023-06-14T12:22:20;3.10;;;1.38;;
46086;SDS011;31824;49.648;8.640;2023-06-14T12:25:30;2.83;;;1.17;;
46086;SDS011;31824;49.648;8.640;2023-06-14T12:28:33;2.05;;;0.98;;
46086;SDS011;31824;49.648;8.640;2023-06-14T12:31:35;2.67;;;1.27;;
46086;SDS011;31824;49.648;8.640;2023-06-14T12:34:37;3.05;;;1.48;;
46086;SDS011;31824;49.648;8.640;2023-06-14T12:37:39;2.88;;;1.33;;
46086;SDS011;31824;49.648;8.640;2023-06-14T12:40:42;2.70;;;1.27;;
46086;SDS011;31824;49.648;8.640;2023-06-14T12:43:44;6.43;;;1.58;;
46086;SDS011;31824;49.648;8.640;2023-06-14T12:46:46;3.17;;;1.40;;
46086;SDS011;31824;49.648;8.640;2023-06-14T12:49:48;2.97;;;1.02;;
46086;SDS011;31824;49.648;8.640;2023-06-14T12:53:09;3.67;;;1.40;;
46086;SDS011;31824;49.648;8.640;2023-06-14T12:56:13;3.25;;;1.30;;
46086;SDS011;31824;49.648;8.640;2023-06-14T12:59:15;2.55;;;1.20;;
46086;SDS011;31824;49.648;8.640;2023-06-14T13:02:17;2.95;;;1.45;;
46086;SDS011;31824;49.648;8.640;2023-06-14T13:05:22;2.90;;;1.50;;
46086;SDS011;31824;49.648;8.640;2023-06-14T13:08:24;4.07;;;1.30;;
46086;SDS011;31824;49.648;8.640;2023-06-14T13:11:27;2.40;;;1.40;;
46086;SDS011;31824;49.648;8.640;2023-06-14T13:14:29;3.45;;;1.38;;
46086;SDS011;31824;49.648;8.640;2023-06-14T13:17:32;2.47;;;1.20;;
46086;SDS011;31824;49.648;8.640;2023-06-14T13:20:34;2.28;;;1.40;;
46086;SDS011;31824;49.648;8.640;2023-06-14T13:23:36;3.67;;;1.60;;
46086;SDS011;31824;49.648;8.640;2023-06-14T13:26:39;2.58;;;1.23;;
46086;SDS011;31824;49.648;8.640;2023-06-14T13:29:41;2.15;;;1.30;;
46086;SDS011;31824;49.648;8.640;2023-06-14T13:32:43;3.10;;;1.58;;
46086;SDS011;31824;49.648;8.640;2023-06-14T13:35:48;2.15;;;1.30;;
46086;SDS011;31824;49.648;8.640;2023-06-14T13:38:50;2.70;;;1.20;;
46086;SDS011;31824;49.648;8.640;2023-06-14T13:41:55;3.60;;;1.50;;
46086;SDS011;31824;49.648;8.640;2023-06-14T13:44:57;3.05;;;1.55;;
46086;SDS011;31824;49.648;8.640;2023-06-14T13:48:00;4.40;;;1.50;;
46086;SDS011;31824;49.648;8.640;2023-06-14T13:51:02;2.25;;;1.30;;
46086;SDS011;31824;49.648;8.640;2023-06-14T13:54:05;2.17;;;1.20;;
46086;SDS011;31824;49.648;8.640;2023-06-14T13:57:09;6.10;;;1.45;;
46086;SDS011;31824;49.648;8.640;2023-06-14T14:00:14;3.80;;;1.30;;
46086;SDS011;31824;49.648;8.640;2023-06-14T14:03:19;3.40;;;1.17;;
46086;SDS011;31824;49.648;8.640;2023-06-14T14:06:21;2.97;;;1.30;;
46086;SDS011;31824;49.648;8.640;2023-06-14T14:09:23;3.28;;;1.60;;
46086;SDS011;31824;49.648;8.640;2023-06-14T14:12:27;4.60;;;1.60;;
46086;SDS011;31824;49.648;8.640;2023-06-14T14:15:30;2.67;;;1.40;;
46086;SDS011;31824;49.648;8.640;2023-06-14T14:18:36;2.95;;;1.50;;
46086;SDS011;31824;49.648;8.640;2023-06-14T14:21:39;2.80;;;1.40;;
46086;SDS011;31824;49.648;8.640;2023-06-14T14:24:41;2.72;;;1.40;;
46086;SDS011;31824;49.648;8.640;2023-06-14T14:27:44;2.13;;;1.40;;
46086;SDS011;31824;49.648;8.640;2023-06-14T14:30:46;3.17;;;1.50;;
46086;SDS011;31824;49.648;8.640;2023-06-14T14:34:07;5.60;;;1.80;;
46086;SDS011;31824;49.648;8.640;2023-06-14T14:37:09;2.22;;;1.20;;
46086;SDS011;31824;49.648;8.640;2023-06-14T14:40:11;2.20;;;1.30;;
46086;SDS011;31824;49.648;8.640;2023-06-14T14:43:16;1.83;;;1.00;;
46086;SDS011;31824;49.648;8.640;2023-06-14T14:46:18;2.70;;;1.10;;
46086;SDS011;31824;49.648;8.640;2023-06-14T14:49:19;2.53;;;1.30;;
46086;SDS011;31824;49.648;8.640;2023-06-14T14:52:21;2.90;;;1.45;;
46086;SDS011;31824;49.648;8.640;2023-06-14T14:55:25;4.35;;;1.15;;
46086;SDS011;31824;49.648;8.640;2023-06-14T14:58:28;3.38;;;1.20;;
46086;SDS011;31824;49.648;8.640;2023-06-14T15:01:30;2.08;;;1.10;;
46086;SDS011;31824;49.648;8.640;2023-06-14T15:04:32;4.30;;;1.38;;
46086;SDS011;31824;49.648;8.640;2023-06-14T15:07:34;4.50;;;1.38;;
46086;SDS011;31824;49.648;8.640;2023-06-14T15:10:36;3.08;;;1.33;;
46086;SDS011;31824;49.648;8.640;2023-06-14T15:13:40;3.50;;;1.60;;
46086;SDS011;31824;49.648;8.640;2023-06-14T15:16:42;4.38;;;1.33;;
46086;SDS011;31824;49.648;8.640;2023-06-14T15:19:44;3.35;;;1.35;;
46086;SDS011;31824;49.648;8.640;2023-06-14T15:22:46;3.08;;;1.40;;
46086;SDS011;31824;49.648;8.640;2023-06-14T15:25:51;2.45;;;1.30;;
46086;SDS011;31824;49.648;8.640;2023-06-14T15:28:54;3.00;;;1.33;;
46086;SDS011;31824;49.648;8.640;2023-06-14T15:31:56;3.08;;;1.25;;
46086;SDS011;31824;49.648;8.640;2023-06-14T15:35:01;2.35;;;1.10;;
46086;SDS011;31824;49.648;8.640;2023-06-14T15:38:03;2.92;;;1.40;;
46086;SDS011;31824;49.648;8.640;2023-06-14T15:41:05;2.50;;;1.30;;
46086;SDS011;31824;49.648;8.640;2023-06-14T15:44:10;2.67;;;1.27;;
46086;SDS011;31824;49.648;8.640;2023-06-14T15:47:12;2.35;;;1.27;;
46086;SDS011;31824;49.648;8.640;2023-06-14T15:50:14;3.70;;;1.40;;
46086;SDS011;31824;49.648;8.640;2023-06-14T15:53:17;3.50;;;1.20;;
46086;SDS011;31824;49.648;8.640;2023-06-14T15:56:18;2.35;;;1.15;;
46086;SDS011;31824;49.648;8.640;2023-06-14T15:59:22;3.30;;;1.02;;
46086;SDS011;31824;49.648;8.640;2023-06-14T16:02:24;3.20;;;1.25;;
46086;SDS011;31824;49.648;8.640;2023-06-14T16:05:26;3.97;;;1.23;;
46086;SDS011;31824;49.648;8.640;2023-06-14T16:08:28;2.38;;;1.27;;
46086;SDS011;31824;49.648;8.640;2023-06-14T16:11:41;2.63;;;1.30;;
46086;SDS011;31824;49.648;8.640;2023-06-14T16:14:44;2.22;;;1.20;;
46086;SDS011;31824;49.648;8.640;2023-06-14T16:17:46;2.47;;;1.10;;
46086;SDS011;31824;49.648;8.640;2023-06-14T16:20:48;3.35;;;1.20;;
46086;SDS011;31824;49.648;8.640;2023-06-14T16:23:50;2.70;;;1.52;;
46086;SDS011;31824;49.648;8.640;2023-06-14T16:26:52;2.50;;;1.20;;
46086;SDS011;31824;49.648;8.640;2023-06-14T16:29:57;2.45;;;1.35;;
46086;SDS011;31824;49.648;8.640;2023-06-14T16:32:58;3.05;;;1.30;;
46086;SDS011;31824;49.648;8.640;2023-06-14T16:36:00;2.72;;;1.20;;
46086;SDS011;31824;49.648;8.640;2023-06-14T16:39:02;3.75;;;1.27;;
46086;SDS011;31824;49.648;8.640;2023-06-14T16:42:05;2.85;;;1.20;;
46086;SDS011;31824;49.648;8.640;2023-06-14T16:45:09;1.88;;;1.00;;
46086;SDS011;31824;49.648;8.640;2023-06-14T16:48:12;2.13;;;1.20;;
46086;SDS011;31824;49.648;8.640;2023-06-14T16:51:13;3.08;;;1.27;;
46086;SDS011;31824;49.648;8.640;2023-06-14T16:54:15;2.15;;;1.10;;
46086;SDS011;31824;49.648;8.640;2023-06-14T16:57:18;3.05;;;0.95;;
46086;SDS011;31824;49.648;8.640;2023-06-14T17:00:21;3.40;;;1.10;;
46086;SDS011;31824;49.648;8.640;2023-06-14T17:03:25;2.03;;;1.02;;
46086;SDS011;31824;49.648;8.640;2023-06-14T17:06:29;4.07;;;1.25;;
46086;SDS011;31824;49.648;8.640;2023-06-14T17:09:31;1.58;;;0.95;;
46086;SDS011;31824;49.648;8.640;2023-06-14T17:12:33;3.63;;;1.15;;
46086;SDS011;31824;49.648;8.640;2023-06-14T17:15:37;4.20;;;1.20;;
46086;SDS011;31824;49.648;8.640;2023-06-14T17:18:38;1.83;;;0.90;;
46086;SDS011;31824;49.648;8.640;2023-06-14T17:21:40;1.83;;;1.10;;
46086;SDS011;31824;49.648;8.640;2023-06-14T17:24:47;1.52;;;0.90;;
46086;SDS011;31824;49.648;8.640;2023-06-14T17:27:49;2.35;;;0.98;;
46086;SDS011;31824;49.648;8.640;2023-06-14T17:30:53;2.15;;;1.00;;
46086;SDS011;31824;49.648;8.640;2023-06-14T17:33:55;1.95;;;0.90;;
46086;SDS011;31824;49.648;8.640;2023-06-14T17:36:56;1.75;;;1.00;;
46086;SDS011;31824;49.648;8.640;2023-06-14T17:39:58;5.55;;;1.20;;
46086;SDS011;31824;49.648;8.640;2023-06-14T17:43:00;2.67;;;1.00;;
46086;SDS011;31824;49.648;8.640;2023-06-14T17:46:03;2.08;;;0.85;;
46086;SDS011;31824;49.648;8.640;2023-06-14T17:49:07;2.20;;;1.15;;
46086;SDS011;31824;49.648;8.640;2023-06-14T17:52:08;2.47;;;1.00;;
46086;SDS011;31824;49.648;8.640;2023-06-14T17:55:10;2.22;;;1.00;;
46086;SDS011;31824;49.648;8.640;2023-06-14T17:58:12;1.70;;;1.00;;
46086;SDS011;31824;49.648;8.640;2023-06-14T18:01:15;1.88;;;0.80;;
46086;SDS011;31824;49.648;8.640;2023-06-14T18:04:18;6.15;;;1.23;;
46086;SDS011;31824;49.648;8.640;2023-06-14T18:07:21;1.75;;;0.88;;
46086;SDS011;31824;49.648;8.640;2023-06-14T18:10:28;1.98;;;1.00;;
46086;SDS011;31824;49.648;8.640;2023-06-14T18:13:32;2.85;;;1.25;;
46086;SDS011;31824;49.648;8.640;2023-06-14T18:16:42;2.17;;;1.08;;
46086;SDS011;31824;49.648;8.640;2023-06-14T18:19:44;2.50;;;1.10;;
46086;SDS011;31824;49.648;8.640;2023-06-14T18:22:46;3.00;;;1.20;;
46086;SDS011;31824;49.648;8.640;2023-06-14T18:25:48;2.53;;;1.10;;
46086;SDS011;31824;49.648;8.640;2023-06-14T18:28:50;1.98;;;0.90;;
46086;SDS011;31824;49.648;8.640;2023-06-14T18:31:53;2.63;;;1.20;;
46086;SDS011;31824;49.648;8.640;2023-06-14T18:34:55;6.80;;;1.10;;
46086;SDS011;31824;49.648;8.640;2023-06-14T18:37:57;2.55;;;1.20;;
46086;SDS011;31824;49.648;8.640;2023-06-14T18:40:58;3.47;;;1.30;;
46086;SDS011;31824;49.648;8.640;2023-06-14T18:44:00;2.65;;;1.17;;
46086;SDS011;31824;49.648;8.640;2023-06-14T18:47:04;4.63;;;1.52;;
46086;SDS011;31824;49.648;8.640;2023-06-14T18:50:06;3.40;;;1.00;;